sensor_id;sensor_type;location;lat;lon;timestamp;P1;durP1;ratioP1;P2;durP2;ratioP2
10029;SDS011;5055;52.054;8.524;2022-11-11T00:01:11;0.40;;;0.40;;
10029;SDS011;5055;52.054;8.524;2022-11-11T00:03:41;0.30;;;0.30;;
10029;SDS011;5055;52.054;8.524;2022-11-11T00:06:10;0.20;;;0.20;;
10029;SDS011;5055;52.054;8.524;2022-11-11T00:08:40;0.20;;;0.20;;
10029;SDS011;5055;52.054;8.524;2022-11-11T00:11:10;0.30;;;0.30;;
10029;SDS011;5055;52.054;8.524;2022-11-11T00:13:40;0.33;;;0.33;;
10029;SDS011;5055;52.054;8.524;2022-11-11T00:16:10;0.33;;;0.33;;
10029;SDS011;5055;52.054;8.524;2022-11-11T00:18:40;0.30;;;0.30;;
10029;SDS011;5055;52.054;8.524;2022-11-11T00:21:27;0.30;;;0.30;;
10029;SDS011;5055;52.054;8.524;2022-11-11T00:24:18;0.30;;;0.30;;
10029;SDS011;5055;52.054;8.524;2022-11-11T00:27:06;0.20;;;0.20;;
10029;SDS011;5055;52.054;8.524;2022-11-11T00:29:36;0.30;;;0.30;;
10029;SDS011;5055;52.054;8.524;2022-11-11T00:32:04;0.30;;;0.30;;
10029;SDS011;5055;52.054;8.524;2022-11-11T00:34:56;0.30;;;0.30;;
10029;SDS011;5055;52.054;8.524;2022-11-11T00:37:43;0.30;;;0.30;;
10029;SDS011;5055;52.054;8.524;2022-11-11T00:40:14;0.30;;;0.30;;
10029;SDS011;5055;52.054;8.524;2022-11-11T00:42:43;0.30;;;0.30;;
10029;SDS011;5055;52.054;8.524;2022-11-11T00:45:12;0.23;;;0.23;;
10029;SDS011;5055;52.054;8.524;2022-11-11T00:47:55;0.30;;;0.30;;
10029;SDS011;5055;52.054;8.524;2022-11-11T00:50:41;0.30;;;0.30;;
10029;SDS011;5055;52.054;8.524;2022-11-11T00:53:25;0.30;;;0.30;;
10029;SDS011;5055;52.054;8.524;2022-11-11T00:55:55;0.23;;;0.23;;
10029;SDS011;5055;52.054;8.524;2022-11-11T00:58:24;0.20;;;0.20;;
10029;SDS011;5055;52.054;8.524;2022-11-11T01:00:54;0.40;;;0.40;;
10029;SDS011;5055;52.054;8.524;2022-11-11T01:03:24;0.30;;;0.30;;
10029;SDS011;5055;52.054;8.524;2022-11-11T01:05:52;0.30;;;0.30;;
10029;SDS011;5055;52.054;8.524;2022-11-11T01:08:23;0.20;;;0.20;;
10029;SDS011;5055;52.054;8.524;2022-11-11T01:10:52;0.30;;;0.30;;
10029;SDS011;5055;52.054;8.524;2022-11-11T01:13:22;0.20;;;0.20;;
10029;SDS011;5055;52.054;8.524;2022-11-11T01:15:51;0.20;;;0.20;;
10029;SDS011;5055;52.054;8.524;2022-11-11T01:18:26;0.20;;;0.20;;
10029;SDS011;5055;52.054;8.524;2022-11-11T01:20:59;0.30;;;0.30;;
10029;SDS011;5055;52.054;8.524;2022-11-11T01:23:29;0.30;;;0.30;;
10029;SDS011;5055;52.054;8.524;2022-11-11T01:26:02;0.30;;;0.30;;
10029;SDS011;5055;52.054;8.524;2022-11-11T01:28:31;0.20;;;0.20;;
10029;SDS011;5055;52.054;8.524;2022-11-11T01:31:00;0.30;;;0.30;;
10029;SDS011;5055;52.054;8.524;2022-11-11T01:33:31;0.30;;;0.30;;
10029;SDS011;5055;52.054;8.524;2022-11-11T01:36:06;0.30;;;0.30;;
10029;SDS011;5055;52.054;8.524;2022-11-11T01:38:36;0.20;;;0.20;;
10029;SDS011;5055;52.054;8.524;2022-11-11T01:41:05;0.30;;;0.30;;
10029;SDS011;5055;52.054;8.524;2022-11-11T01:43:48;0.30;;;0.30;;
10029;SDS011;5055;52.054;8.524;2022-11-11T01:46:23;0.30;;;0.30;;
10029;SDS011;5055;52.054;8.524;2022-11-11T01:49:01;0.30;;;0.30;;
10029;SDS011;5055;52.054;8.524;2022-11-11T01:51:45;0.30;;;0.30;;
10029;SDS011;5055;52.054;8.524;2022-11-11T01:54:18;0.30;;;0.30;;
10029;SDS011;5055;52.054;8.524;2022-11-11T01:56:54;0.30;;;0.30;;
10029;SDS011;5055;52.054;8.524;2022-11-11T01:59:28;0.40;;;0.40;;
10029;SDS011;5055;52.054;8.524;2022-11-11T02:01:58;0.30;;;0.30;;
10029;SDS011;5055;52.054;8.524;2022-11-11T02:04:31;0.30;;;0.30;;
10029;SDS011;5055;52.054;8.524;2022-11-11T02:07:19;0.30;;;0.30;;
10029;SDS011;5055;52.054;8.524;2022-11-11T02:09:49;0.40;;;0.40;;
10029;SDS011;5055;52.054;8.524;2022-11-11T02:12:19;0.30;;;0.30;;
10029;SDS011;5055;52.054;8.524;2022-11-11T02:15:05;0.30;;;0.30;;
10029;SDS011;5055;52.054;8.524;2022-11-11T02:17:34;0.30;;;0.30;;
10029;SDS011;5055;52.054;8.524;2022-11-11T02:20:05;0.40;;;0.40;;
10029;SDS011;5055;52.054;8.524;2022-11-11T02:22:40;0.30;;;0.30;;
10029;SDS011;5055;52.054;8.524;2022-11-11T02:25:17;0.40;;;0.40;;
10029;SDS011;5055;52.054;8.524;2022-11-11T02:27:49;0.40;;;0.40;;
10029;SDS011;5055;52.054;8.524;2022-11-11T02:30:19;0.30;;;0.30;;
10029;SDS011;5055;52.054;8.524;2022-11-11T02:32:50;0.40;;;0.40;;
10029;SDS011;5055;52.054;8.524;2022-11-11T02:35:21;0.30;;;0.30;;
10029;SDS011;5055;52.054;8.524;2022-11-11T02:37:52;0.30;;;0.30;;
10029;SDS011;5055;52.054;8.524;2022-11-11T02:40:24;0.30;;;0.30;;
10029;SDS011;5055;52.054;8.524;2022-11-11T02:42:57;0.20;;;0.20;;
10029;SDS011;5055;52.054;8.524;2022-11-11T02:45:26;0.30;;;0.30;;
10029;SDS011;5055;52.054;8.524;2022-11-11T02:47:54;0.30;;;0.30;;
10029;SDS011;5055;52.054;8.524;2022-11-11T02:50:23;0.37;;;0.37;;
10029;SDS011;5055;52.054;8.524;2022-11-11T02:52:52;0.30;;;0.30;;
10029;SDS011;5055;52.054;8.524;2022-11-11T02:55:20;0.30;;;0.30;;
10029;SDS011;5055;52.054;8.524;2022-11-11T02:57:50;0.40;;;0.40;;
10029;SDS011;5055;52.054;8.524;2022-11-11T03:00:18;0.40;;;0.40;;
10029;SDS011;5055;52.054;8.524;2022-11-11T03:02:47;0.20;;;0.20;;
10029;SDS011;5055;52.054;8.524;2022-11-11T03:05:15;0.30;;;0.30;;
10029;SDS011;5055;52.054;8.524;2022-11-11T03:07:44;0.30;;;0.30;;
10029;SDS011;5055;52.054;8.524;2022-11-11T03:10:13;0.40;;;0.40;;
10029;SDS011;5055;52.054;8.524;2022-11-11T03:12:43;0.20;;;0.20;;
10029;SDS011;5055;52.054;8.524;2022-11-11T03:15:12;0.30;;;0.30;;
10029;SDS011;5055;52.054;8.524;2022-11-11T03:17:41;0.30;;;0.30;;
10029;SDS011;5055;52.054;8.524;2022-11-11T03:20:09;0.30;;;0.30;;
10029;SDS011;5055;52.054;8.524;2022-11-11T03:23:01;0.30;;;0.30;;
10029;SDS011;5055;52.054;8.524;2022-11-11T03:25:30;0.30;;;0.30;;
10029;SDS011;5055;52.054;8.524;2022-11-11T03:28:04;0.30;;;0.30;;
10029;SDS011;5055;52.054;8.524;2022-11-11T03:30:34;0.40;;;0.40;;
10029;SDS011;5055;52.054;8.524;2022-11-11T03:33:03;0.30;;;0.30;;
10029;SDS011;5055;52.054;8.524;2022-11-11T03:35:32;0.30;;;0.30;;
10029;SDS011;5055;52.054;8.524;2022-11-11T03:38:01;0.30;;;0.30;;
10029;SDS011;5055;52.054;8.524;2022-11-11T03:40:41;0.30;;;0.30;;
10029;SDS011;5055;52.054;8.524;2022-11-11T03:43:10;0.20;;;0.20;;
10029;SDS011;5055;52.054;8.524;2022-11-11T03:45:40;0.30;;;0.30;;
10029;SDS011;5055;52.054;8.524;2022-11-11T03:48:12;0.30;;;0.30;;
10029;SDS011;5055;52.054;8.524;2022-11-11T03:50:41;0.30;;;0.30;;
10029;SDS011;5055;52.054;8.524;2022-11-11T03:53:12;0.30;;;0.30;;
10029;SDS011;5055;52.054;8.524;2022-11-11T03:55:41;0.30;;;0.30;;
10029;SDS011;5055;52.054;8.524;2022-11-11T03:58:10;0.20;;;0.20;;
10029;SDS011;5055;52.054;8.524;2022-11-11T04:00:39;0.30;;;0.30;;
10029;SDS011;5055;52.054;8.524;2022-11-11T04:03:09;0.30;;;0.30;;
10029;SDS011;5055;52.054;8.524;2022-11-11T04:05:56;0.30;;;0.30;;
10029;SDS011;5055;52.054;8.524;2022-11-11T04:08:42;0.30;;;0.30;;
10029;SDS011;5055;52.054;8.524;2022-11-11T04:11:28;0.30;;;0.30;;
10029;SDS011;5055;52.054;8.524;2022-11-11T04:13:59;0.30;;;0.30;;
10029;SDS011;5055;52.054;8.524;2022-11-11T04:16:48;0.40;;;0.40;;
10029;SDS011;5055;52.054;8.524;2022-11-11T04:19:17;0.30;;;0.30;;
10029;SDS011;5055;52.054;8.524;2022-11-11T04:22:03;0.30;;;0.30;;
10029;SDS011;5055;52.054;8.524;2022-11-11T04:24:32;0.30;;;0.30;;
10029;SDS011;5055;52.054;8.524;2022-11-11T04:27:18;0.40;;;0.40;;
10029;SDS011;5055;52.054;8.524;2022-11-11T04:29:47;0.30;;;0.30;;
10029;SDS011;5055;52.054;8.524;2022-11-11T04:32:17;0.30;;;0.30;;
10029;SDS011;5055;52.054;8.524;2022-11-11T04:35:01;0.20;;;0.20;;
10029;SDS011;5055;52.054;8.524;2022-11-11T04:37:32;0.40;;;0.40;;
10029;SDS011;5055;52.054;8.524;2022-11-11T04:40:02;0.20;;;0.20;;
10029;SDS011;5055;52.054;8.524;2022-11-11T04:42:51;0.30;;;0.30;;
10029;SDS011;5055;52.054;8.524;2022-11-11T04:45:20;0.30;;;0.30;;
10029;SDS011;5055;52.054;8.524;2022-11-11T04:47:59;0.37;;;0.37;;
10029;SDS011;5055;52.054;8.524;2022-11-11T04:50:29;0.30;;;0.30;;
10029;SDS011;5055;52.054;8.524;2022-11-11T04:52:59;0.30;;;0.30;;
10029;SDS011;5055;52.054;8.524;2022-11-11T04:55:28;0.33;;;0.33;;
10029;SDS011;5055;52.054;8.524;2022-11-11T04:58:16;0.40;;;0.40;;
10029;SDS011;5055;52.054;8.524;2022-11-11T05:00:45;0.30;;;0.30;;
10029;SDS011;5055;52.054;8.524;2022-11-11T05:03:15;0.30;;;0.30;;
10029;SDS011;5055;52.054;8.524;2022-11-11T05:05:45;0.33;;;0.33;;
10029;SDS011;5055;52.054;8.524;2022-11-11T05:08:32;0.20;;;0.20;;
10029;SDS011;5055;52.054;8.524;2022-11-11T05:11:20;0.30;;;0.30;;
10029;SDS011;5055;52.054;8.524;2022-11-11T05:13:50;0.30;;;0.30;;
10029;SDS011;5055;52.054;8.524;2022-11-11T05:16:37;0.30;;;0.30;;
10029;SDS011;5055;52.054;8.524;2022-11-11T05:19:27;0.30;;;0.30;;
10029;SDS011;5055;52.054;8.524;2022-11-11T05:22:28;0.27;;;0.27;;
10029;SDS011;5055;52.054;8.524;2022-11-11T05:24:59;0.20;;;0.20;;
10029;SDS011;5055;52.054;8.524;2022-11-11T05:27:45;0.30;;;0.30;;
10029;SDS011;5055;52.054;8.524;2022-11-11T05:30:14;0.20;;;0.20;;
10029;SDS011;5055;52.054;8.524;2022-11-11T05:32:43;0.30;;;0.30;;
10029;SDS011;5055;52.054;8.524;2022-11-11T05:35:14;0.40;;;0.40;;
10029;SDS011;5055;52.054;8.524;2022-11-11T05:37:43;0.20;;;0.20;;
10029;SDS011;5055;52.054;8.524;2022-11-11T05:40:32;0.30;;;0.30;;
10029;SDS011;5055;52.054;8.524;2022-11-11T05:43:01;0.20;;;0.20;;
10029;SDS011;5055;52.054;8.524;2022-11-11T05:45:29;0.30;;;0.30;;
10029;SDS011;5055;52.054;8.524;2022-11-11T05:47:59;0.40;;;0.40;;
10029;SDS011;5055;52.054;8.524;2022-11-11T05:50:29;0.40;;;0.40;;
10029;SDS011;5055;52.054;8.524;2022-11-11T05:52:58;0.33;;;0.33;;
10029;SDS011;5055;52.054;8.524;2022-11-11T05:55:26;0.30;;;0.30;;
10029;SDS011;5055;52.054;8.524;2022-11-11T05:57:55;0.20;;;0.20;;
10029;SDS011;5055;52.054;8.524;2022-11-11T06:00:24;0.20;;;0.20;;
10029;SDS011;5055;52.054;8.524;2022-11-11T06:02:52;0.20;;;0.20;;
10029;SDS011;5055;52.054;8.524;2022-11-11T06:05:21;0.30;;;0.30;;
10029;SDS011;5055;52.054;8.524;2022-11-11T06:07:52;0.20;;;0.20;;
10029;SDS011;5055;52.054;8.524;2022-11-11T06:10:20;0.40;;;0.40;;
10029;SDS011;5055;52.054;8.524;2022-11-11T06:12:59;0.20;;;0.20;;
10029;SDS011;5055;52.054;8.524;2022-11-11T06:15:36;0.20;;;0.20;;
10029;SDS011;5055;52.054;8.524;2022-11-11T06:18:06;0.30;;;0.30;;
10029;SDS011;5055;52.054;8.524;2022-11-11T06:20:35;0.30;;;0.30;;
10029;SDS011;5055;52.054;8.524;2022-11-11T06:23:05;0.40;;;0.40;;
10029;SDS011;5055;52.054;8.524;2022-11-11T06:25:34;0.30;;;0.30;;
10029;SDS011;5055;52.054;8.524;2022-11-11T06:28:19;0.30;;;0.30;;
10029;SDS011;5055;52.054;8.524;2022-11-11T06:30:48;0.20;;;0.20;;
10029;SDS011;5055;52.054;8.524;2022-11-11T06:33:17;0.40;;;0.40;;
10029;SDS011;5055;52.054;8.524;2022-11-11T06:35:47;0.30;;;0.30;;
10029;SDS011;5055;52.054;8.524;2022-11-11T06:38:17;0.30;;;0.30;;
10029;SDS011;5055;52.054;8.524;2022-11-11T06:40:46;0.33;;;0.33;;
10029;SDS011;5055;52.054;8.524;2022-11-11T06:43:15;0.30;;;0.30;;
10029;SDS011;5055;52.054;8.524;2022-11-11T06:45:43;0.30;;;0.30;;
10029;SDS011;5055;52.054;8.524;2022-11-11T06:48:13;0.20;;;0.20;;
10029;SDS011;5055;52.054;8.524;2022-11-11T06:50:41;0.30;;;0.30;;
10029;SDS011;5055;52.054;8.524;2022-11-11T06:53:11;0.40;;;0.40;;
10029;SDS011;5055;52.054;8.524;2022-11-11T06:55:42;0.30;;;0.30;;
10029;SDS011;5055;52.054;8.524;2022-11-11T06:58:11;0.20;;;0.20;;
10029;SDS011;5055;52.054;8.524;2022-11-11T07:00:42;0.23;;;0.23;;
10029;SDS011;5055;52.054;8.524;2022-11-11T07:03:12;0.30;;;0.30;;
10029;SDS011;5055;52.054;8.524;2022-11-11T07:05:41;0.20;;;0.20;;
10029;SDS011;5055;52.054;8.524;2022-11-11T07:08:11;0.30;;;0.30;;
10029;SDS011;5055;52.054;8.524;2022-11-11T07:10:45;0.20;;;0.20;;
10029;SDS011;5055;52.054;8.524;2022-11-11T07:13:14;0.30;;;0.30;;
10029;SDS011;5055;52.054;8.524;2022-11-11T07:15:43;0.30;;;0.30;;
10029;SDS011;5055;52.054;8.524;2022-11-11T07:18:12;0.30;;;0.30;;
10029;SDS011;5055;52.054;8.524;2022-11-11T07:20:40;0.30;;;0.30;;
10029;SDS011;5055;52.054;8.524;2022-11-11T07:23:09;0.40;;;0.40;;
10029;SDS011;5055;52.054;8.524;2022-11-11T07:25:37;0.30;;;0.30;;
10029;SDS011;5055;52.054;8.524;2022-11-11T07:28:07;0.30;;;0.30;;
10029;SDS011;5055;52.054;8.524;2022-11-11T07:30:36;0.30;;;0.30;;
10029;SDS011;5055;52.054;8.524;2022-11-11T07:33:04;0.30;;;0.30;;
10029;SDS011;5055;52.054;8.524;2022-11-11T07:35:32;0.30;;;0.30;;
10029;SDS011;5055;52.054;8.524;2022-11-11T07:38:02;0.33;;;0.33;;
10029;SDS011;5055;52.054;8.524;2022-11-11T07:40:30;0.30;;;0.30;;
10029;SDS011;5055;52.054;8.524;2022-11-11T07:42:59;0.30;;;0.30;;
10029;SDS011;5055;52.054;8.524;2022-11-11T07:45:29;0.30;;;0.30;;
10029;SDS011;5055;52.054;8.524;2022-11-11T07:47:57;0.30;;;0.30;;
10029;SDS011;5055;52.054;8.524;2022-11-11T07:50:26;0.30;;;0.30;;
10029;SDS011;5055;52.054;8.524;2022-11-11T07:52:54;0.40;;;0.40;;
10029;SDS011;5055;52.054;8.524;2022-11-11T07:55:22;0.30;;;0.30;;
10029;SDS011;5055;52.054;8.524;2022-11-11T07:57:51;0.37;;;0.37;;
10029;SDS011;5055;52.054;8.524;2022-11-11T08:00:19;0.40;;;0.40;;
10029;SDS011;5055;52.054;8.524;2022-11-11T08:02:50;0.30;;;0.30;;
10029;SDS011;5055;52.054;8.524;2022-11-11T08:05:24;0.30;;;0.30;;
10029;SDS011;5055;52.054;8.524;2022-11-11T08:07:52;0.30;;;0.30;;
10029;SDS011;5055;52.054;8.524;2022-11-11T08:10:21;0.20;;;0.20;;
10029;SDS011;5055;52.054;8.524;2022-11-11T08:12:52;0.30;;;0.30;;
10029;SDS011;5055;52.054;8.524;2022-11-11T08:15:38;0.23;;;0.23;;
10029;SDS011;5055;52.054;8.524;2022-11-11T08:18:08;0.20;;;0.20;;
10029;SDS011;5055;52.054;8.524;2022-11-11T08:20:37;0.20;;;0.20;;
10029;SDS011;5055;52.054;8.524;2022-11-11T08:23:11;0.30;;;0.30;;
10029;SDS011;5055;52.054;8.524;2022-11-11T08:26:04;0.30;;;0.30;;
10029;SDS011;5055;52.054;8.524;2022-11-11T08:28:33;0.30;;;0.30;;
10029;SDS011;5055;52.054;8.524;2022-11-11T08:31:01;0.20;;;0.20;;
10029;SDS011;5055;52.054;8.524;2022-11-11T08:33:31;0.30;;;0.30;;
10029;SDS011;5055;52.054;8.524;2022-11-11T08:36:00;0.20;;;0.20;;
10029;SDS011;5055;52.054;8.524;2022-11-11T08:38:31;0.20;;;0.20;;
10029;SDS011;5055;52.054;8.524;2022-11-11T08:41:00;0.30;;;0.30;;
10029;SDS011;5055;52.054;8.524;2022-11-11T08:43:30;0.20;;;0.20;;
10029;SDS011;5055;52.054;8.524;2022-11-11T08:46:03;0.20;;;0.20;;
10029;SDS011;5055;52.054;8.524;2022-11-11T08:48:33;0.30;;;0.30;;
10029;SDS011;5055;52.054;8.524;2022-11-11T08:51:02;0.30;;;0.30;;
10029;SDS011;5055;52.054;8.524;2022-11-11T08:53:30;0.30;;;0.30;;
10029;SDS011;5055;52.054;8.524;2022-11-11T08:56:00;0.30;;;0.30;;
10029;SDS011;5055;52.054;8.524;2022-11-11T08:58:29;0.30;;;0.30;;
10029;SDS011;5055;52.054;8.524;2022-11-11T09:00:59;0.40;;;0.40;;
10029;SDS011;5055;52.054;8.524;2022-11-11T09:03:29;0.20;;;0.20;;
10029;SDS011;5055;52.054;8.524;2022-11-11T09:05:59;0.30;;;0.30;;
10029;SDS011;5055;52.054;8.524;2022-11-11T09:08:28;0.20;;;0.20;;
10029;SDS011;5055;52.054;8.524;2022-11-11T09:10:56;0.20;;;0.20;;
10029;SDS011;5055;52.054;8.524;2022-11-11T09:13:25;0.30;;;0.30;;
10029;SDS011;5055;52.054;8.524;2022-11-11T09:15:54;0.20;;;0.20;;
10029;SDS011;5055;52.054;8.524;2022-11-11T09:18:23;0.20;;;0.20;;
10029;SDS011;5055;52.054;8.524;2022-11-11T09:20:52;0.20;;;0.20;;
10029;SDS011;5055;52.054;8.524;2022-11-11T09:23:21;0.30;;;0.30;;
10029;SDS011;5055;52.054;8.524;2022-11-11T09:25:50;0.20;;;0.20;;
10029;SDS011;5055;52.054;8.524;2022-11-11T09:28:19;0.20;;;0.20;;
10029;SDS011;5055;52.054;8.524;2022-11-11T09:30:47;0.30;;;0.30;;
10029;SDS011;5055;52.054;8.524;2022-11-11T09:33:16;0.30;;;0.30;;
10029;SDS011;5055;52.054;8.524;2022-11-11T09:35:45;0.30;;;0.30;;
10029;SDS011;5055;52.054;8.524;2022-11-11T09:38:14;0.30;;;0.30;;
10029;SDS011;5055;52.054;8.524;2022-11-11T09:40:48;0.30;;;0.30;;
10029;SDS011;5055;52.054;8.524;2022-11-11T09:43:23;0.30;;;0.30;;
10029;SDS011;5055;52.054;8.524;2022-11-11T09:46:06;0.20;;;0.20;;
10029;SDS011;5055;52.054;8.524;2022-11-11T09:48:47;0.20;;;0.20;;
10029;SDS011;5055;52.054;8.524;2022-11-11T09:51:29;0.30;;;0.30;;
10029;SDS011;5055;52.054;8.524;2022-11-11T09:54:04;0.20;;;0.20;;
10029;SDS011;5055;52.054;8.524;2022-11-11T09:56:39;0.30;;;0.30;;
10029;SDS011;5055;52.054;8.524;2022-11-11T09:59:09;0.20;;;0.20;;
10029;SDS011;5055;52.054;8.524;2022-11-11T10:01:44;0.20;;;0.20;;
10029;SDS011;5055;52.054;8.524;2022-11-11T10:04:19;0.20;;;0.20;;
10029;SDS011;5055;52.054;8.524;2022-11-11T10:06:56;0.20;;;0.20;;
10029;SDS011;5055;52.054;8.524;2022-11-11T10:09:32;0.30;;;0.30;;
10029;SDS011;5055;52.054;8.524;2022-11-11T10:12:10;0.30;;;0.30;;
10029;SDS011;5055;52.054;8.524;2022-11-11T10:14:41;0.30;;;0.30;;
10029;SDS011;5055;52.054;8.524;2022-11-11T10:17:14;0.20;;;0.20;;
10029;SDS011;5055;52.054;8.524;2022-11-11T10:19:56;0.20;;;0.20;;
10029;SDS011;5055;52.054;8.524;2022-11-11T10:22:37;0.20;;;0.20;;
10029;SDS011;5055;52.054;8.524;2022-11-11T10:25:16;0.20;;;0.20;;
10029;SDS011;5055;52.054;8.524;2022-11-11T10:27:50;0.20;;;0.20;;
10029;SDS011;5055;52.054;8.524;2022-11-11T10:30:21;0.20;;;0.20;;
10029;SDS011;5055;52.054;8.524;2022-11-11T10:32:58;0.30;;;0.30;;
10029;SDS011;5055;52.054;8.524;2022-11-11T10:35:29;0.20;;;0.20;;
10029;SDS011;5055;52.054;8.524;2022-11-11T10:38:05;0.20;;;0.20;;
10029;SDS011;5055;52.054;8.524;2022-11-11T10:40:49;0.27;;;0.27;;
10029;SDS011;5055;52.054;8.524;2022-11-11T10:43:22;0.30;;;0.30;;
10029;SDS011;5055;52.054;8.524;2022-11-11T10:45:55;0.30;;;0.30;;
10029;SDS011;5055;52.054;8.524;2022-11-11T10:48:34;0.20;;;0.20;;
10029;SDS011;5055;52.054;8.524;2022-11-11T10:51:09;0.20;;;0.20;;
10029;SDS011;5055;52.054;8.524;2022-11-11T10:53:41;0.30;;;0.30;;
10029;SDS011;5055;52.054;8.524;2022-11-11T10:56:17;0.20;;;0.20;;
10029;SDS011;5055;52.054;8.524;2022-11-11T10:58:51;0.20;;;0.20;;
10029;SDS011;5055;52.054;8.524;2022-11-11T11:01:27;0.20;;;0.20;;
10029;SDS011;5055;52.054;8.524;2022-11-11T11:04:02;0.30;;;0.30;;
10029;SDS011;5055;52.054;8.524;2022-11-11T11:06:36;0.20;;;0.20;;
10029;SDS011;5055;52.054;8.524;2022-11-11T11:09:12;0.20;;;0.20;;
10029;SDS011;5055;52.054;8.524;2022-11-11T11:11:47;0.30;;;0.30;;
10029;SDS011;5055;52.054;8.524;2022-11-11T11:14:21;0.30;;;0.30;;
10029;SDS011;5055;52.054;8.524;2022-11-11T11:16:57;0.20;;;0.20;;
10029;SDS011;5055;52.054;8.524;2022-11-11T11:19:28;0.23;;;0.23;;
10029;SDS011;5055;52.054;8.524;2022-11-11T11:21:57;0.20;;;0.20;;
10029;SDS011;5055;52.054;8.524;2022-11-11T11:24:27;0.30;;;0.30;;
10029;SDS011;5055;52.054;8.524;2022-11-11T11:26:57;0.20;;;0.20;;
10029;SDS011;5055;52.054;8.524;2022-11-11T11:29:29;0.20;;;0.20;;
10029;SDS011;5055;52.054;8.524;2022-11-11T11:32:12;0.20;;;0.20;;
10029;SDS011;5055;52.054;8.524;2022-11-11T11:34:46;0.20;;;0.20;;
10029;SDS011;5055;52.054;8.524;2022-11-11T11:37:16;0.20;;;0.20;;
10029;SDS011;5055;52.054;8.524;2022-11-11T11:39:46;0.17;;;0.17;;
10029;SDS011;5055;52.054;8.524;2022-11-11T11:42:27;0.20;;;0.20;;
10029;SDS011;5055;52.054;8.524;2022-11-11T11:45:00;0.20;;;0.20;;
10029;SDS011;5055;52.054;8.524;2022-11-11T11:47:45;0.20;;;0.20;;
10029;SDS011;5055;52.054;8.524;2022-11-11T11:50:44;0.20;;;0.20;;
10029;SDS011;5055;52.054;8.524;2022-11-11T11:53:21;0.20;;;0.20;;
10029;SDS011;5055;52.054;8.524;2022-11-11T11:55:58;0.20;;;0.20;;
10029;SDS011;5055;52.054;8.524;2022-11-11T11:58:36;0.20;;;0.20;;
10029;SDS011;5055;52.054;8.524;2022-11-11T12:01:11;0.20;;;0.20;;
10029;SDS011;5055;52.054;8.524;2022-11-11T12:03:51;0.20;;;0.20;;
10029;SDS011;5055;52.054;8.524;2022-11-11T12:06:46;0.20;;;0.20;;
10029;SDS011;5055;52.054;8.524;2022-11-11T12:09:25;0.20;;;0.20;;
10029;SDS011;5055;52.054;8.524;2022-11-11T12:12:03;0.20;;;0.20;;
10029;SDS011;5055;52.054;8.524;2022-11-11T12:14:44;0.20;;;0.20;;
10029;SDS011;5055;52.054;8.524;2022-11-11T12:17:32;0.20;;;0.20;;
10029;SDS011;5055;52.054;8.524;2022-11-11T12:20:13;0.20;;;0.20;;
10029;SDS011;5055;52.054;8.524;2022-11-11T12:22:51;0.20;;;0.20;;
10029;SDS011;5055;52.054;8.524;2022-11-11T12:25:30;0.20;;;0.20;;
10029;SDS011;5055;52.054;8.524;2022-11-11T12:28:09;0.20;;;0.20;;
10029;SDS011;5055;52.054;8.524;2022-11-11T12:30:47;0.20;;;0.20;;
10029;SDS011;5055;52.054;8.524;2022-11-11T12:33:43;0.10;;;0.10;;
10029;SDS011;5055;52.054;8.524;2022-11-11T12:36:26;0.10;;;0.10;;
10029;SDS011;5055;52.054;8.524;2022-11-11T12:39:03;0.20;;;0.20;;
10029;SDS011;5055;52.054;8.524;2022-11-11T12:41:38;0.10;;;0.10;;
10029;SDS011;5055;52.054;8.524;2022-11-11T12:44:14;0.10;;;0.10;;
10029;SDS011;5055;52.054;8.524;2022-11-11T12:46:49;0.10;;;0.10;;
10029;SDS011;5055;52.054;8.524;2022-11-11T12:49:38;0.10;;;0.10;;
10029;SDS011;5055;52.054;8.524;2022-11-11T12:52:16;0.10;;;0.10;;
10029;SDS011;5055;52.054;8.524;2022-11-11T12:54:58;0.10;;;0.10;;
10029;SDS011;5055;52.054;8.524;2022-11-11T12:57:38;0.10;;;0.10;;
10029;SDS011;5055;52.054;8.524;2022-11-11T13:00:18;0.10;;;0.10;;
10029;SDS011;5055;52.054;8.524;2022-11-11T13:05:58;0.10;;;0.10;;
10029;SDS011;5055;52.054;8.524;2022-11-11T13:11:43;0.10;;;0.10;;
10029;SDS011;5055;52.054;8.524;2022-11-11T13:14:35;0.20;;;0.20;;
10029;SDS011;5055;52.054;8.524;2022-11-11T13:17:18;0.10;;;0.10;;
10029;SDS011;5055;52.054;8.524;2022-11-11T13:19:48;0.20;;;0.20;;
10029;SDS011;5055;52.054;8.524;2022-11-11T13:22:22;0.20;;;0.20;;
10029;SDS011;5055;52.054;8.524;2022-11-11T13:24:53;0.10;;;0.10;;
10029;SDS011;5055;52.054;8.524;2022-11-11T13:27:28;0.20;;;0.20;;
10029;SDS011;5055;52.054;8.524;2022-11-11T13:30:31;0.10;;;0.10;;
10029;SDS011;5055;52.054;8.524;2022-11-11T13:33:06;0.10;;;0.10;;
10029;SDS011;5055;52.054;8.524;2022-11-11T13:35:41;0.10;;;0.10;;
10029;SDS011;5055;52.054;8.524;2022-11-11T13:38:24;0.10;;;0.10;;
10029;SDS011;5055;52.054;8.524;2022-11-11T13:40:55;0.10;;;0.10;;
10029;SDS011;5055;52.054;8.524;2022-11-11T13:43:27;0.10;;;0.10;;
10029;SDS011;5055;52.054;8.524;2022-11-11T13:45:59;0.10;;;0.10;;
10029;SDS011;5055;52.054;8.524;2022-11-11T13:48:30;0.20;;;0.20;;
10029;SDS011;5055;52.054;8.524;2022-11-11T13:51:11;0.10;;;0.10;;
10029;SDS011;5055;52.054;8.524;2022-11-11T13:53:52;0.10;;;0.10;;
10029;SDS011;5055;52.054;8.524;2022-11-11T13:56:22;0.10;;;0.10;;
10029;SDS011;5055;52.054;8.524;2022-11-11T13:58:54;0.10;;;0.10;;
10029;SDS011;5055;52.054;8.524;2022-11-11T14:01:25;0.20;;;0.20;;
10029;SDS011;5055;52.054;8.524;2022-11-11T14:04:08;0.20;;;0.20;;
10029;SDS011;5055;52.054;8.524;2022-11-11T14:12:33;0.10;;;0.10;;
10029;SDS011;5055;52.054;8.524;2022-11-11T14:15:08;0.10;;;0.10;;
10029;SDS011;5055;52.054;8.524;2022-11-11T14:18:02;0.10;;;0.10;;
10029;SDS011;5055;52.054;8.524;2022-11-11T14:20:35;0.10;;;0.10;;
10029;SDS011;5055;52.054;8.524;2022-11-11T14:23:21;0.10;;;0.10;;
10029;SDS011;5055;52.054;8.524;2022-11-11T14:28:54;0.10;;;0.10;;
10029;SDS011;5055;52.054;8.524;2022-11-11T14:34:32;0.10;;;0.10;;
10029;SDS011;5055;52.054;8.524;2022-11-11T14:37:22;0.10;;;0.10;;
10029;SDS011;5055;52.054;8.524;2022-11-11T14:39:57;0.10;;;0.10;;
10029;SDS011;5055;52.054;8.524;2022-11-11T14:42:46;0.10;;;0.10;;
10029;SDS011;5055;52.054;8.524;2022-11-11T14:51:42;0.20;;;0.20;;
10029;SDS011;5055;52.054;8.524;2022-11-11T14:57:17;0.20;;;0.20;;
10029;SDS011;5055;52.054;8.524;2022-11-11T14:59:51;0.20;;;0.20;;
10029;SDS011;5055;52.054;8.524;2022-11-11T15:02:26;0.20;;;0.20;;
10029;SDS011;5055;52.054;8.524;2022-11-11T15:04:58;0.20;;;0.20;;
10029;SDS011;5055;52.054;8.524;2022-11-11T15:07:30;0.20;;;0.20;;
10029;SDS011;5055;52.054;8.524;2022-11-11T15:10:21;0.20;;;0.20;;
10029;SDS011;5055;52.054;8.524;2022-11-11T15:13:09;0.20;;;0.20;;
10029;SDS011;5055;52.054;8.524;2022-11-11T15:15:55;0.20;;;0.20;;
10029;SDS011;5055;52.054;8.524;2022-11-11T15:18:46;0.20;;;0.20;;
10029;SDS011;5055;52.054;8.524;2022-11-11T15:21:46;0.30;;;0.30;;
10029;SDS011;5055;52.054;8.524;2022-11-11T15:24:24;0.20;;;0.20;;
10029;SDS011;5055;52.054;8.524;2022-11-11T15:27:04;0.20;;;0.20;;
10029;SDS011;5055;52.054;8.524;2022-11-11T15:29:45;0.20;;;0.20;;
10029;SDS011;5055;52.054;8.524;2022-11-11T15:32:35;0.20;;;0.20;;
10029;SDS011;5055;52.054;8.524;2022-11-11T15:35:19;0.20;;;0.20;;
10029;SDS011;5055;52.054;8.524;2022-11-11T15:37:53;0.20;;;0.20;;
10029;SDS011;5055;52.054;8.524;2022-11-11T15:40:25;0.20;;;0.20;;
10029;SDS011;5055;52.054;8.524;2022-11-11T15:42:57;0.20;;;0.20;;
10029;SDS011;5055;52.054;8.524;2022-11-11T15:45:31;0.20;;;0.20;;
10029;SDS011;5055;52.054;8.524;2022-11-11T15:48:03;0.20;;;0.20;;
10029;SDS011;5055;52.054;8.524;2022-11-11T15:50:39;0.20;;;0.20;;
10029;SDS011;5055;52.054;8.524;2022-11-11T15:53:09;0.13;;;0.13;;
10029;SDS011;5055;52.054;8.524;2022-11-11T15:55:40;0.20;;;0.20;;
10029;SDS011;5055;52.054;8.524;2022-11-11T15:58:29;0.20;;;0.20;;
10029;SDS011;5055;52.054;8.524;2022-11-11T16:00:59;0.20;;;0.20;;
10029;SDS011;5055;52.054;8.524;2022-11-11T16:03:32;0.20;;;0.20;;
10029;SDS011;5055;52.054;8.524;2022-11-11T16:06:03;0.20;;;0.20;;
10029;SDS011;5055;52.054;8.524;2022-11-11T16:08:35;0.20;;;0.20;;
10029;SDS011;5055;52.054;8.524;2022-11-11T16:11:04;0.20;;;0.20;;